createdAt,value
2022-07-29T00:04:26.815Z,2.40
2022-07-29T00:09:28.530Z,1.05
2022-07-29T00:14:30.002Z,2.47
2022-07-29T00:19:31.398Z,2.67
2022-07-29T00:24:34.392Z,1.70
2022-07-29T00:29:35.804Z,1.50
2022-07-29T00:34:55.590Z,1.88
2022-07-29T00:39:57.006Z,2.35
2022-07-29T00:44:58.434Z,1.98
2022-07-29T00:49:59.849Z,1.90
2022-07-29T00:55:06.346Z,2.35
2022-07-29T01:00:15.291Z,1.27
2022-07-29T01:05:21.157Z,2.10
2022-07-29T01:10:22.849Z,3.00
2022-07-29T01:15:24.341Z,2.25
2022-07-29T01:21:03.602Z,1.35
2022-07-29T01:26:14.370Z,2.35
2022-07-29T01:31:26.630Z,1.70
2022-07-29T01:36:41.289Z,2.35
2022-07-29T01:41:48.981Z,1.20
2022-07-29T01:46:53.431Z,3.10
2022-07-29T01:52:35.925Z,1.27
2022-07-29T01:57:37.334Z,1.73
2022-07-29T02:02:39.708Z,2.97
2022-07-29T02:07:44.270Z,2.75
2022-07-29T02:12:50.604Z,1.42
2022-07-29T02:17:55.886Z,1.33
2022-07-29T02:22:57.821Z,1.93
2022-07-29T02:27:59.316Z,0.93
2022-07-29T02:33:00.725Z,2.45
2022-07-29T02:38:20.784Z,1.38
2022-07-29T02:43:22.214Z,1.67
2022-07-29T02:48:26.721Z,5.30
2022-07-29T02:53:28.126Z,1.50
2022-07-29T02:58:34.454Z,1.30
2022-07-29T03:03:37.748Z,1.17
2022-07-29T03:08:39.173Z,3.55
2022-07-29T03:13:40.597Z,3.03
2022-07-29T03:18:42.029Z,2.55
2022-07-29T03:23:46.686Z,1.38
2022-07-29T03:28:48.086Z,1.67
2022-07-29T03:33:49.509Z,2.50
2022-07-29T03:38:50.976Z,1.38
2022-07-29T03:43:52.478Z,1.63
2022-07-29T03:48:55.512Z,1.85
2022-07-29T03:53:56.955Z,3.03
2022-07-29T03:58:58.713Z,2.10
2022-07-29T04:04:01.162Z,4.88
2022-07-29T04:09:02.622Z,2.20
2022-07-29T04:14:04.071Z,3.78
2022-07-29T04:19:05.507Z,2.38
2022-07-29T04:24:07.256Z,2.83
2022-07-29T04:29:08.682Z,1.85
2022-07-29T04:34:10.643Z,2.05
2022-07-29T04:39:12.055Z,4.53
2022-07-29T04:44:13.955Z,3.53
2022-07-29T04:49:15.729Z,4.25
2022-07-29T04:54:17.501Z,4.15
2022-07-29T04:59:19.137Z,5.47
2022-07-29T05:04:21.062Z,7.05
2022-07-29T05:09:22.651Z,6.85
2022-07-29T05:14:24.074Z,10.77
2022-07-29T05:19:25.692Z,11.65
2022-07-29T05:24:27.145Z,16.75
2022-07-29T05:29:44.438Z,14.50
2022-07-29T05:34:50.689Z,21.85
2022-07-29T05:39:56.909Z,17.35
2022-07-29T05:50:00.181Z,23.13
2022-07-29T05:55:05.120Z,25.45
2022-07-29T06:00:07.175Z,25.25
2022-07-29T06:05:12.875Z,23.98
2022-07-29T06:10:19.186Z,29.10
2022-07-29T06:15:20.601Z,28.73
2022-07-29T06:20:26.991Z,33.22
2022-07-29T06:25:31.800Z,30.10
2022-07-29T06:30:33.350Z,32.22
2022-07-29T06:35:41.801Z,29.83
2022-07-29T06:41:03.308Z,29.73
2022-07-29T06:46:06.586Z,28.02
2022-07-29T06:51:08.137Z,32.88
2022-07-29T06:56:09.708Z,33.80
2022-07-29T07:01:11.237Z,31.40
2022-07-29T07:06:15.440Z,35.90
2022-07-29T07:11:16.869Z,34.88
2022-07-29T07:16:18.498Z,33.28
2022-07-29T07:21:19.986Z,35.33
2022-07-29T07:26:21.454Z,39.88
2022-07-29T07:31:23.300Z,35.65
2022-07-29T07:36:24.792Z,28.23
2022-07-29T07:41:26.197Z,31.90
2022-07-29T07:46:33.865Z,23.65
2022-07-29T07:51:35.324Z,26.35
2022-07-29T07:56:36.739Z,27.23
2022-07-29T08:01:55.065Z,22.45
2022-07-29T08:06:58.175Z,27.63
2022-07-29T08:12:00.126Z,28.63
2022-07-29T08:17:01.634Z,23.80
2022-07-29T08:22:03.139Z,28.77
2022-07-29T08:27:12.861Z,18.95
2022-07-29T08:32:43.777Z,24.90
2022-07-29T08:37:47.438Z,19.58
2022-07-29T08:42:48.846Z,20.35
2022-07-29T08:47:50.302Z,19.38
2022-07-29T08:52:54.405Z,20.25
2022-07-29T08:57:58.010Z,20.02
2022-07-29T09:03:00.803Z,15.70
2022-07-29T09:08:02.321Z,18.33
2022-07-29T09:13:03.845Z,17.33
2022-07-29T09:18:05.255Z,23.23
2022-07-29T09:23:08.689Z,16.60
2022-07-29T09:28:19.028Z,16.13
2022-07-29T09:33:21.529Z,20.50
2022-07-29T09:38:23.079Z,19.80
2022-07-29T09:43:24.505Z,17.27
2022-07-29T09:48:26.416Z,18.50
2022-07-29T09:53:38.123Z,19.27
2022-07-29T09:58:39.549Z,17.48
2022-07-29T10:03:53.444Z,17.05
2022-07-29T10:08:55.005Z,20.10
2022-07-29T10:13:56.453Z,17.02
2022-07-29T10:18:58.910Z,16.50
2022-07-29T10:24:01.305Z,17.83
2022-07-29T10:29:03.005Z,16.17
2022-07-29T10:34:26.378Z,16.30
2022-07-29T10:39:44.478Z,15.32
2022-07-29T10:44:46.688Z,21.45
2022-07-29T10:50:02.189Z,20.60
2022-07-29T10:55:05.641Z,16.30
2022-07-29T11:00:11.551Z,17.23
2022-07-29T11:05:20.124Z,14.27
2022-07-29T11:10:22.336Z,15.80
2022-07-29T11:20:50.988Z,13.18
2022-07-29T11:26:24.502Z,18.98
2022-07-29T11:31:49.195Z,19.45
2022-07-29T11:37:14.881Z,15.85
2022-07-29T11:47:46.591Z,12.05
2022-07-29T11:52:49.669Z,10.63
2022-07-29T11:58:04.254Z,13.23
2022-07-29T12:03:10.139Z,9.68
2022-07-29T12:07:01.819Z,15.00
2022-07-29T12:08:20.599Z,9.30
2022-07-29T12:13:22.426Z,11.70
2022-07-29T12:18:24.479Z,7.75
2022-07-29T12:23:26.025Z,8.65
2022-07-29T12:28:31.937Z,10.50
2022-07-29T12:33:35.161Z,9.55
2022-07-29T12:38:36.841Z,7.43
2022-07-29T12:43:38.340Z,7.72
2022-07-29T12:48:40.913Z,10.00
2022-07-29T12:53:42.448Z,7.90
2022-07-29T12:58:47.049Z,6.40
2022-07-29T13:04:01.005Z,5.28
2022-07-29T13:09:08.101Z,6.43
2022-07-29T13:14:10.268Z,8.18
2022-07-29T13:19:12.297Z,6.47
2022-07-29T13:24:16.875Z,6.80
2022-07-29T13:29:21.145Z,5.85
2022-07-29T13:34:25.134Z,5.28
2022-07-29T13:39:26.533Z,6.05
2022-07-29T13:44:27.937Z,6.60
2022-07-29T13:49:29.517Z,6.90
2022-07-29T13:54:31.197Z,4.65
2022-07-29T13:59:32.728Z,4.15
2022-07-29T14:04:34.366Z,14.07
2022-07-29T14:09:40.939Z,13.13
2022-07-29T14:14:43.223Z,7.18
2022-07-29T14:19:44.639Z,11.68
2022-07-29T14:24:46.094Z,6.20
2022-07-29T14:29:47.509Z,8.35
2022-07-29T14:34:48.922Z,6.47
2022-07-29T14:39:50.338Z,6.03
2022-07-29T14:44:51.765Z,5.68
2022-07-29T14:49:53.401Z,5.80
2022-07-29T14:54:54.797Z,6.00
2022-07-29T14:59:56.224Z,5.85
2022-07-29T15:04:57.643Z,2.90
2022-07-29T15:09:59.791Z,5.18
2022-07-29T15:15:01.248Z,5.30
2022-07-29T15:20:05.401Z,4.72
2022-07-29T15:25:07.047Z,4.18
2022-07-29T15:30:09.112Z,2.58
2022-07-29T15:35:11.102Z,3.30
2022-07-29T15:40:12.507Z,3.38
2022-07-29T15:45:14.002Z,3.28
2022-07-29T15:50:16.716Z,5.63
2022-07-29T15:55:18.865Z,4.55
2022-07-29T16:00:22.317Z,3.97
2022-07-29T16:05:23.792Z,6.03
2022-07-29T16:10:25.226Z,3.92
2022-07-29T16:15:26.666Z,5.22
2022-07-29T16:20:28.081Z,6.00
2022-07-29T16:25:57.386Z,6.15
2022-07-29T16:30:51.465Z,6.10
2022-07-29T16:35:52.945Z,7.50
2022-07-29T16:40:54.345Z,7.35
2022-07-29T16:45:56.065Z,5.78
2022-07-29T16:50:57.501Z,6.35
2022-07-29T16:55:58.909Z,6.25
2022-07-29T17:01:00.376Z,7.68
2022-07-29T17:06:01.897Z,6.47
2022-07-29T17:11:03.293Z,5.28
2022-07-29T17:16:04.932Z,5.43
2022-07-29T17:21:06.359Z,7.15
2022-07-29T17:26:07.785Z,6.60
2022-07-29T17:31:09.267Z,5.97
2022-07-29T17:36:26.745Z,5.57
2022-07-29T17:41:28.181Z,6.45
2022-07-29T17:46:29.590Z,5.60
2022-07-29T17:51:31.009Z,5.22
2022-07-29T17:56:32.618Z,5.97
2022-07-29T18:01:34.200Z,5.20
2022-07-29T18:06:35.669Z,5.93
2022-07-29T18:11:37.064Z,6.07
2022-07-29T18:16:40.578Z,7.60
2022-07-29T18:21:50.976Z,6.35
2022-07-29T18:26:57.135Z,6.22
2022-07-29T18:31:59.759Z,4.68
2022-07-29T18:37:01.507Z,4.90
2022-07-29T18:42:03.061Z,4.40
2022-07-29T18:47:04.813Z,4.32
2022-07-29T18:52:07.945Z,6.13
2022-07-29T18:57:54.889Z,4.80
2022-07-29T19:02:30.962Z,4.40
2022-07-29T19:07:32.513Z,5.85
2022-07-29T19:12:33.922Z,7.70
2022-07-29T19:17:35.316Z,4.63
2022-07-29T19:22:36.745Z,3.00
2022-07-29T19:27:38.174Z,2.72
2022-07-29T19:32:39.585Z,6.00
2022-07-29T19:37:41.532Z,5.05
2022-07-29T19:42:43.393Z,2.67
2022-07-29T19:47:45.113Z,6.18
2022-07-29T19:52:47.007Z,5.15
2022-07-29T19:57:48.470Z,4.30
2022-07-29T20:02:50.045Z,3.97
2022-07-29T20:07:51.674Z,4.13
2022-07-29T20:12:53.789Z,8.48
2022-07-29T20:17:57.427Z,5.15
2022-07-29T20:22:59.189Z,3.97
2022-07-29T20:28:00.665Z,3.00
2022-07-29T20:33:02.113Z,4.07
2022-07-29T20:38:03.520Z,2.97
2022-07-29T20:43:05.716Z,3.85
2022-07-29T20:48:08.386Z,3.78
2022-07-29T20:53:10.041Z,7.18
2022-07-29T20:58:11.451Z,3.30
2022-07-29T21:03:12.857Z,2.60
2022-07-29T21:08:14.668Z,2.80
2022-07-29T21:13:16.588Z,3.72
2022-07-29T21:18:30.190Z,4.32
2022-07-29T21:23:32.100Z,5.22
2022-07-29T21:28:42.153Z,5.93
2022-07-29T21:33:44.798Z,5.38
2022-07-29T21:38:46.193Z,5.03
2022-07-29T21:43:47.657Z,4.13
2022-07-29T21:48:49.105Z,4.18
2022-07-29T21:53:50.576Z,5.45
2022-07-29T21:58:54.792Z,3.25
2022-07-29T22:03:56.350Z,2.75
2022-07-29T22:08:57.782Z,2.88
2022-07-29T22:13:59.569Z,4.35
2022-07-29T22:19:01.056Z,4.20
2022-07-29T22:24:02.477Z,3.65
2022-07-29T22:29:03.892Z,3.17
2022-07-29T22:34:11.545Z,3.80
2022-07-29T22:39:15.669Z,2.60
2022-07-29T22:44:17.684Z,3.23
2022-07-29T22:49:19.179Z,3.22
2022-07-29T22:59:22.124Z,5.75
2022-07-29T23:04:23.675Z,4.78
2022-07-29T23:09:25.118Z,2.50
2022-07-29T23:14:26.528Z,4.60
2022-07-29T23:19:27.957Z,4.72
2022-07-29T23:24:29.353Z,4.50
2022-07-29T23:29:34.972Z,11.75
2022-07-29T23:34:37.952Z,3.97
2022-07-29T23:39:39.514Z,5.78
2022-07-29T23:44:40.913Z,4.57
2022-07-29T23:49:42.325Z,5.43
2022-07-29T23:54:43.725Z,5.28
2022-07-29T23:59:45.137Z,6.25
